Terminal Aerodrome Forecast
Issued by NWS North Platte, NE

Home | Current Version | Previous Version | Graphics & Text | Print | Product List | Glossary On
Versions: 1 2 3 4 5 6 7 8 9 10 11 12 13 14 15 16 17 18 19 20
000
FTUS43 KLBF 181000 AAB
TAFVTN
TAF AMD
KVTN 181024Z 1810/1906 05010KT 6SM -SHRA SCT025 OVC050
      TEMPO 1810/1814 4SM SHRA OVC025
     FM181600 07010KT 4SM BR OVC011
     FM190400 33011G18KT P6SM OVC015=

USA.gov is the U.S. government's official web portal to all federal, state and local government web resources and services.